地図

経路データ

SID SEASON NUMBER BASIN SUBBASIN NAME ISO_TIME NATURE LAT LON WMO_WIND WMO_PRES WMO_AGENCY TRACK_TYPE DIST2LAND LANDFALL IFLAG USA_AGENCY USA_ATCF_ID USA_LAT USA_LON USA_RECORD USA_STATUS USA_WIND USA_PRES USA_SSHS USA_R34_NE USA_R34_SE USA_R34_SW USA_R34_NW USA_R50_NE USA_R50_SE USA_R50_SW USA_R50_NW USA_R64_NE USA_R64_SE USA_R64_SW USA_R64_NW USA_POCI USA_ROCI USA_RMW USA_EYE TOKYO_LAT TOKYO_LON TOKYO_GRADE TOKYO_WIND TOKYO_PRES TOKYO_R50_DIR TOKYO_R50_LONG TOKYO_R50_SHORT TOKYO_R30_DIR TOKYO_R30_LONG TOKYO_R30_SHORT TOKYO_LAND CMA_LAT CMA_LON CMA_CAT CMA_WIND CMA_PRES HKO_LAT HKO_LON HKO_CAT HKO_WIND HKO_PRES NEWDELHI_LAT NEWDELHI_LON NEWDELHI_GRADE NEWDELHI_WIND NEWDELHI_PRES NEWDELHI_CI NEWDELHI_DP NEWDELHI_POCI REUNION_LAT REUNION_LON REUNION_TYPE REUNION_WIND REUNION_PRES REUNION_TNUM REUNION_CI REUNION_RMW REUNION_R34_NE REUNION_R34_SE REUNION_R34_SW REUNION_R34_NW REUNION_R50_NE REUNION_R50_SE REUNION_R50_SW REUNION_R50_NW REUNION_R64_NE REUNION_R64_SE REUNION_R64_SW REUNION_R64_NW BOM_LAT BOM_LON BOM_TYPE BOM_WIND BOM_PRES BOM_TNUM BOM_CI BOM_RMW BOM_R34_NE BOM_R34_SE BOM_R34_SW BOM_R34_NW BOM_R50_NE BOM_R50_SE BOM_R50_SW BOM_R50_NW BOM_R64_NE BOM_R64_SE BOM_R64_SW BOM_R64_NW BOM_ROCI BOM_POCI BOM_EYE BOM_POS_METHOD BOM_PRES_METHOD NADI_LAT NADI_LON NADI_CAT NADI_WIND NADI_PRES WELLINGTON_LAT WELLINGTON_LON WELLINGTON_WIND WELLINGTON_PRES DS824_LAT DS824_LON DS824_STAGE DS824_WIND DS824_PRES TD9636_LAT TD9636_LON TD9636_STAGE TD9636_WIND TD9636_PRES TD9635_LAT TD9635_LON TD9635_WIND TD9635_PRES TD9635_ROCI NEUMANN_LAT NEUMANN_LON NEUMANN_CLASS NEUMANN_WIND NEUMANN_PRES MLC_LAT MLC_LON MLC_CLASS MLC_WIND MLC_PRES USA_GUST BOM_GUST BOM_GUST_PER REUNION_GUST REUNION_GUST_PER USA_SEAHGT USA_SEARAD_NE USA_SEARAD_SE USA_SEARAD_SW USA_SEARAD_NW STORM_SPEED STORM_DIR
1901135N11128 1901 17 WP MM NOT_NAMED 1901-05-14 16:00:00 NR 11.0000 127.600 main 196 142 __________O___ -1 11.0000 127.600 7 14 281
1901135N11128 1901 17 WP MM NOT_NAMED 1901-05-14 18:00:00 NR 11.0910 127.141 main 142 79 __________P___ -1 11.0910 127.141 7 14 281
1901135N11128 1901 17 WP MM NOT_NAMED 1901-05-14 21:00:00 NR 11.2239 126.467 main 79 24 __________P___ -1 11.2239 126.467 7 13 281
1901135N11128 1901 17 WP MM NOT_NAMED 1901-05-15 00:00:00 NR 11.3495 125.835 main 24 0 __________P___ -1 11.3495 125.835 7 12 282
1901135N11128 1901 17 WP MM NOT_NAMED 1901-05-15 03:00:00 NR 11.4645 125.269 main 0 0 __________P___ -1 11.4645 125.269 7 11 282
1901135N11128 1901 17 WP MM NOT_NAMED 1901-05-15 04:00:00 NR 11.5000 125.100 main 0 0 __________O___ -1 11.5000 125.100 3 10 282
1901135N11128 1901 17 WP MM NOT_NAMED 1901-05-15 06:00:00 NR 11.5666 124.793 main 11 11 __________P___ -1 11.5666 124.793 3 9 283
1901135N11128 1901 17 WP MM NOT_NAMED 1901-05-15 09:00:00 NR 11.6605 124.395 main 22 0 __________P___ -1 11.6605 124.395 3 8 284
1901135N11128 1901 17 WP MM NOT_NAMED 1901-05-15 12:00:00 NR 11.7555 124.045 main 0 0 __________P___ -1 11.7555 124.045 3 7 287
1901135N11128 1901 17 WP MM NOT_NAMED 1901-05-15 15:00:00 NR 11.8610 123.713 main 0 0 __________P___ -1 11.8610 123.713 3 7 288
1901135N11128 1901 17 WP MM NOT_NAMED 1901-05-15 16:00:00 NR 11.9000 123.600 main 10 10 __________O___ -1 11.9000 123.600 4 8 290
1901135N11128 1901 17 WP MM NOT_NAMED 1901-05-15 18:00:00 NR 11.9938 123.345 main 11 10 __________P___ -1 11.9938 123.345 4 8 292
1901135N11128 1901 17 WP MM NOT_NAMED 1901-05-15 21:00:00 NR 12.1472 122.962 main 24 32 __________P___ -1 12.1472 122.962 4 8 293
1901135N11128 1901 17 WP MM NOT_NAMED 1901-05-16 00:00:00 NR 12.3049 122.584 main 66 64 __________P___ -1 12.3049 122.584 4 8 293
1901135N11128 1901 17 WP MM NOT_NAMED 1901-05-16 03:00:00 NR 12.4542 122.218 main 66 55 __________P___ -1 12.4542 122.218 4 8 292
1901135N11128 1901 17 WP MM NOT_NAMED 1901-05-16 04:00:00 NR 12.5000 122.100 main 55 32 __________O___ -1 12.5000 122.100 4 7 289
1901135N11128 1901 17 WP MM NOT_NAMED 1901-05-16 06:00:00 NR 12.5727 121.869 main 32 0 __________P___ -1 12.5727 121.869 4 7 287
1901135N11128 1901 17 WP MM NOT_NAMED 1901-05-16 09:00:00 NR 12.6691 121.535 main 0 0 __________P___ -1 12.6691 121.535 4 7 286
1901135N11128 1901 17 WP MM NOT_NAMED 1901-05-16 12:00:00 NR 12.7615 121.214 main 0 0 __________P___ -1 12.7615 121.214 4 6 287
1901135N11128 1901 17 WP MM NOT_NAMED 1901-05-16 15:00:00 NR 12.8624 120.902 main 0 0 __________P___ -1 12.8624 120.902 4 6 289
1901135N11128 1901 17 WP MM NOT_NAMED 1901-05-16 16:00:00 NR 12.9000 120.800 main 0 0 __________O___ -1 12.9000 120.800 4 6 291
1901135N11128 1901 17 WP MM NOT_NAMED 1901-05-16 18:00:00 NR 12.9753 120.597 main 21 15 __________P___ -1 12.9753 120.597 4 6 292
1901135N11128 1901 17 WP MM NOT_NAMED 1901-05-16 21:00:00 NR 13.1008 120.298 main 24 24 __________P___ -1 13.1008 120.298 4 6 295
1901135N11128 1901 17 WP MM NOT_NAMED 1901-05-17 00:00:00 NR 13.2494 120.002 main 39 34 __________P___ -1 13.2494 120.002 4 7 300
1901135N11128 1901 17 WP MM NOT_NAMED 1901-05-17 03:00:00 NR 13.4307 119.702 main 64 64 __________P___ -1 13.4307 119.702 4 7 303
1901135N11128 1901 17 WP MM NOT_NAMED 1901-05-17 04:00:00 NR 13.5000 119.600 main 76 76 __________O___ -1 13.5000 119.600 4 8 305
1901135N11128 1901 17 WP MM NOT_NAMED 1901-05-17 06:00:00 NR 13.6522 119.379 main 102 102 __________P___ -1 13.6522 119.379 4 8 307
1901135N11128 1901 17 WP MM NOT_NAMED 1901-05-17 09:00:00 NR 13.9120 119.040 main 151 148 __________P___ -1 13.9120 119.040 4 9 310
1901135N11128 1901 17 WP MM NOT_NAMED 1901-05-17 12:00:00 NR 14.1984 118.707 main 165 165 __________P___ -1 14.1984 118.707 4 9 313
1901135N11128 1901 17 WP MM NOT_NAMED 1901-05-17 15:00:00 NR 14.4989 118.396 main 186 186 __________P___ -1 14.4989 118.396 4 8 316
1901135N11128 1901 17 WP MM NOT_NAMED 1901-05-17 16:00:00 NR 14.6000 118.300 main 193 193 __________O___ -1 14.6000 118.300 4 8 315
1901135N11128 1901 17 WP MM NOT_NAMED 1901-05-17 18:00:00 NR 14.7785 118.106 main 204 204 __________P___ -1 14.7785 118.106 4 8 315
1901135N11128 1901 17 WP MM NOT_NAMED 1901-05-17 21:00:00 NR 15.0523 117.840 main 227 227 __________P___ -1 15.0523 117.840 4 7 320
1901135N11128 1901 17 WP MM NOT_NAMED 1901-05-18 00:00:00 NR 15.3471 117.615 main 238 231 __________P___ -1 15.3471 117.615 4 7 328
1901135N11128 1901 17 WP MM NOT_NAMED 1901-05-18 03:00:00 NR 15.6787 117.443 main 248 247 __________P___ -1 15.6787 117.443 4 8 336
1901135N11128 1901 17 WP MM NOT_NAMED 1901-05-18 04:00:00 NR 15.8000 117.400 main 247 246 __________O___ -1 15.8000 117.400 4 8 343
1901135N11128 1901 17 WP MM NOT_NAMED 1901-05-18 06:00:00 NR 16.0630 117.317 main 256 256 __________P___ -1 16.0630 117.317 4 9 348
1901135N11128 1901 17 WP MM NOT_NAMED 1901-05-18 09:00:00 NR 16.4954 117.242 main 272 272 __________P___ -1 16.4954 117.242 4 9 354
1901135N11128 1901 17 WP MM NOT_NAMED 1901-05-18 12:00:00 NR 16.9593 117.227 main 287 287 __________P___ -1 16.9593 117.227 4 10 2
1901135N11128 1901 17 WP MM NOT_NAMED 1901-05-18 15:00:00 NR 17.4392 117.272 main 293 298 __________P___ -1 17.4392 117.272 4 10 6
1901135N11128 1901 17 WP MM NOT_NAMED 1901-05-18 16:00:00 NR 17.6000 117.300 main 303 303 __________O___ -1 17.6000 117.300 4 10 10
1901135N11128 1901 17 WP MM NOT_NAMED 1901-05-18 18:00:00 NR 17.9240 117.360 main 308 306 __________P___ -1 17.9240 117.360 4 10 13
1901135N11128 1901 17 WP MM NOT_NAMED 1901-05-18 21:00:00 NR 18.4167 117.501 main 309 305 __________P___ -1 18.4167 117.501 4 10 18
1901135N11128 1901 17 WP MM NOT_NAMED 1901-05-19 00:00:00 NR 18.9006 117.691 main 308 297 __________P___ -1 18.9006 117.691 4 10 23
1901135N11128 1901 17 WP MM NOT_NAMED 1901-05-19 03:00:00 NR 19.3572 117.918 main 305 295 __________P___ -1 19.3572 117.918 4 10 26
1901135N11128 1901 17 WP MM NOT_NAMED 1901-05-19 04:00:00 NR 19.5000 118.000 main 299 295 __________O___ -1 19.5000 118.000 4 9 29
1901135N11128 1901 17 WP MM NOT_NAMED 1901-05-19 06:00:00 NR 19.7697 118.158 main 296 294 __________P___ -1 19.7697 118.158 4 9 32
1901135N11128 1901 17 WP MM NOT_NAMED 1901-05-19 09:00:00 NR 20.1430 118.420 main 299 259 __________P___ -1 20.1430 118.420 4 9 36
1901135N11128 1901 17 WP MM NOT_NAMED 1901-05-19 12:00:00 NR 20.4841 118.704 main 259 214 __________P___ -1 20.4841 118.704 4 9 40
1901135N11128 1901 17 WP MM NOT_NAMED 1901-05-19 15:00:00 NR 20.7995 119.000 main 214 199 __________P___ -1 20.7995 119.000 4 8 42
1901135N11128 1901 17 WP MM NOT_NAMED 1901-05-19 16:00:00 NR 20.9000 119.100 main 199 170 __________O___ -1 20.9000 119.100 4 8 43
1901135N11128 1901 17 WP MM NOT_NAMED 1901-05-19 18:00:00 NR 21.0925 119.292 main 170 126 __________P___ -1 21.0925 119.292 4 8 44
1901135N11128 1901 17 WP MM NOT_NAMED 1901-05-19 21:00:00 NR 21.3622 119.586 main 126 89 __________P___ -1 21.3622 119.586 4 8 46
1901135N11128 1901 17 WP MM NOT_NAMED 1901-05-20 00:00:00 NR 21.6257 119.888 main 89 51 __________P___ -1 21.6257 119.888 4 8 46
1901135N11128 1901 17 WP MM NOT_NAMED 1901-05-20 03:00:00 NR 21.9019 120.196 main 51 41 __________P___ -1 21.9019 120.196 4 8 46
1901135N11128 1901 17 WP MM NOT_NAMED 1901-05-20 04:00:00 NR 22.0000 120.300 main 41 15 __________O___ -1 22.0000 120.300 4 9 43
1901135N11128 1901 17 WP MM NOT_NAMED 1901-05-20 06:00:00 NR 22.2160 120.506 main 15 0 __________P___ -1 22.2160 120.506 4 9 41
1901135N11128 1901 17 WP MM NOT_NAMED 1901-05-20 09:00:00 NR 22.5591 120.821 main 0 0 __________P___ -1 22.5591 120.821 4 9 40
1901135N11128 1901 17 WP MM NOT_NAMED 1901-05-20 12:00:00 NR 22.9167 121.146 main 0 0 __________P___ -1 22.9167 121.146 4 9 40
1901135N11128 1901 17 WP MM NOT_NAMED 1901-05-20 15:00:00 NR 23.2795 121.484 main 10 10 __________P___ -1 23.2795 121.484 4 10 41
1901135N11128 1901 17 WP MM NOT_NAMED 1901-05-20 16:00:00 NR 23.4000 121.600 main 20 20 __________O___ -1 23.4000 121.600 4 10 42
1901135N11128 1901 17 WP MM NOT_NAMED 1901-05-20 18:00:00 NR 23.6464 121.839 main 32 40 __________P___ -1 23.6464 121.839 4 10 42
1901135N11128 1901 17 WP MM NOT_NAMED 1901-05-20 21:00:00 NR 24.0162 122.209 main 60 60 __________P___ -1 24.0162 122.209 4 10 43
1901135N11128 1901 17 WP MM NOT_NAMED 1901-05-21 00:00:00 NR 24.3727 122.589 main 71 71 __________P___ -1 24.3727 122.589 4 10 46
1901135N11128 1901 17 WP MM NOT_NAMED 1901-05-21 03:00:00 NR 24.7000 122.973 main 106 103 __________P___ -1 24.7000 122.973 4 9 47
1901135N11128 1901 17 WP MM NOT_NAMED 1901-05-21 04:00:00 NR 24.8000 123.100 main 113 113 __________O___ -1 24.8000 123.100 4 9 51
1901135N11128 1901 17 WP MM NOT_NAMED 1901-05-21 06:00:00 NR 24.9757 123.348 main 130 140 __________P___ -1 24.9757 123.348 4 8 54
1901135N11128 1901 17 WP MM NOT_NAMED 1901-05-21 09:00:00 NR 25.2077 123.720 main 172 172 __________P___ -1 25.2077 123.720 4 8 57
1901135N11128 1901 17 WP MM NOT_NAMED 1901-05-21 12:00:00 NR 25.4188 124.093 main 215 215 __________P___ -1 25.4188 124.093 4 8 58
1901135N11128 1901 17 WP MM NOT_NAMED 1901-05-21 15:00:00 NR 25.6276 124.472 main 259 259 __________P___ -1 25.6276 124.472 4 8 58
1901135N11128 1901 17 WP MM NOT_NAMED 1901-05-21 16:00:00 NR 25.7000 124.600 main 272 272 __________O___ -1 25.7000 124.600 4 8 57
1901135N11128 1901 17 WP MM NOT_NAMED 1901-05-21 18:00:00 NR 25.8446 124.841 main 294 307 __________P___ -1 25.8446 124.841 4 8 56
1901135N11128 1901 17 WP MM NOT_NAMED 1901-05-21 21:00:00 NR 26.0677 125.208 main 343 343 __________P___ -1 26.0677 125.208 4 8 56
1901135N11128 1901 17 WP MM NOT_NAMED 1901-05-22 00:00:00 NR 26.3125 125.601 main 388 388 __________P___ -1 26.3125 125.601 4 9 55
1901135N11128 1901 17 WP MM NOT_NAMED 1901-05-22 03:00:00 NR 26.5948 126.040 main 438 447 __________P___ -1 26.5948 126.040 4 10 54
1901135N11128 1901 17 WP MM NOT_NAMED 1901-05-22 04:00:00 NR 26.7000 126.200 main 460 460 __________O___ -1 26.7000 126.200 4 11 53
1901135N11128 1901 17 WP MM NOT_NAMED 1901-05-22 06:00:00 NR 26.9402 126.546 main 497 510 __________P___ -1 26.9402 126.546 4 12 52
1901135N11128 1901 17 WP MM NOT_NAMED 1901-05-22 09:00:00 NR 27.3386 127.116 main 528 449 __________P___ -1 27.3386 127.116 4 13 52
1901135N11128 1901 17 WP MM NOT_NAMED 1901-05-22 12:00:00 NR 27.7575 127.732 main 449 377 __________P___ -1 27.7575 127.732 4 14 53
1901135N11128 1901 17 WP MM NOT_NAMED 1901-05-22 15:00:00 NR 28.1691 128.380 main 377 358 __________P___ -1 28.1691 128.380 4 14 55
1901135N11128 1901 17 WP MM NOT_NAMED 1901-05-22 16:00:00 NR 28.3000 128.600 main 358 322 __________O___ -1 28.3000 128.600 4 14 57
1901135N11128 1901 17 WP MM NOT_NAMED 1901-05-22 18:00:00 NR 28.5479 129.043 main 322 253 __________P___ -1 28.5479 129.043 4 14 59
1901135N11128 1901 17 WP MM NOT_NAMED 1901-05-22 21:00:00 NR 28.8898 129.713 main 253 202 __________P___ -1 28.8898 129.713 4 14 61
1901135N11128 1901 17 WP MM NOT_NAMED 1901-05-23 00:00:00 NR 29.2048 130.390 main 202 169 __________P___ -1 29.2048 130.390 4 13 63
1901135N11128 1901 17 WP MM NOT_NAMED 1901-05-23 03:00:00 NR 29.5027 131.072 main 171 163 __________P___ -1 29.5027 131.072 4 13 63
1901135N11128 1901 17 WP MM NOT_NAMED 1901-05-23 04:00:00 NR 29.6000 131.300 main 166 __________O___ -1 29.6000 131.300 4 13 64

デジタル台風データ・検索

IBTrACS Databaseについて

本データベースは、米国NOAAが公開する1842年以降の世界の熱帯低気圧のベストトラックデータアーカイブInternational Best Track Archive for Climate Stewardship (IBTrACS)を、ウェブで閲覧しやすい形式に変換したものです。

最終更新日:2021-12-03